CheckWX is a tool to help pilots better visualize weather data.  It is not intended as a substitute for an official pre-flight weather briefing.

06:30:51 UTC

KMNM METAR
Menominee-Marinette Twin County Airport
Menominee, Michigan, USA
Current

35 mins ago

KMNM 240556Z AUTO 09006KT 2 1/2SM -RA BR OVC003 01/00 A3010 RMK AO2 RAB28SNE28 SLP200 P0000 60000 T00060000 400111017 56003 FZRANO $
Observed
Jan-24 @ 05:56 UTC
Wind
  • 090° at 6 KTS
Visibility
2 1/2 SM
Flight Rules
LIFR
Conditions
Light Rain, Mist
Cloud Levels
  • Overcast at 300' AGL
Temperature
C / 34°F
Dewpoint
C / 32°F
Humidity
93%
Altimeter
30.1" Hg
Pressure
1019.32 hPa
Current Rain
0.01"
Previous

49 mins ago

KMNM 240542Z AUTO 08007KT 3SM -RA BR OVC003 01/00 A3010 RMK AO2 RAB28SNE28 P0000 FZRANO $
Observed
Jan-24 @ 05:42 UTC
Wind
  • 080° at 7 KTS
Visibility
3 SM
Flight Rules
LIFR
Conditions
Light Rain, Mist
Cloud Levels
  • Overcast at 300' AGL
Temperature
C / 34°F
Dewpoint
C / 32°F
Humidity
93%
Altimeter
30.1" Hg
Pressure
1019.32 hPa
Current Rain
0.01"
Previous

1 hour ago

KMNM 240521Z AUTO 08007KT 2 1/2SM -SN BR OVC003 01/00 A3011 RMK AO2 P0000 FZRANO $
Observed
Jan-24 @ 05:21 UTC
Wind
  • 080° at 7 KTS
Visibility
2 1/2 SM
Flight Rules
LIFR
Conditions
Light Snow, Mist
Cloud Levels
  • Overcast at 300' AGL
Temperature
C / 34°F
Dewpoint
C / 32°F
Humidity
93%
Altimeter
30.11" Hg
Pressure
1019.62 hPa
Current Rain
0.01"